KSTL METAR and TAF | Updated Today

KSTL METAR

St Louis Lambert International Airport

Observation time: 28 min. ago

KSTL 301651Z 35006KT 10SM FEW130 FEW200 BKN250 12/02 A3017 RMK AO2 SLP217 T01220022

Need help? Read our tutorial on how to read METARs or read the parsed version below.

St Louis Lambert International Airport (KSTL) METAR

  • Weather conditions on Tue, 30 Nov 2021 16:51:00 +0000 (28 min. ago):
  • Present conditions: Dry
  • Clouds: A few at 3962 meters; a few at 6096 meters; broken sky at 7620 meters
  • Visibility: 16093 meters
  • Wind: 350 degrees at 6 knots
  • Temperature: 12 celsius
  • Dew point: 2 celsius
  • Pressure: 30.17 inHg
  • Remarks: AO2 SLP217 T01220022


Useful to know...

KSTL TAF

St Louis Lambert International Airport

KSTL 301440Z 3015/0118 29005KT P6SM BKN250 FM302300 VRB03KT P6SM BKN130 FM011600 20007KT P6SM BKN090
Observation time: 2:39 hr. ago
Need help? Read our tutorial on how to read TAFs or read the parsed version below.

Parsed version of TAF for St Louis Lambert International Airport (KSTL)

  • From 30 November at 15:00 UTC, to day 01 of the month at 18:00 UTC
  • Clouds: Broken sky at 7620 meters
  • Wind: 290 degrees at 5
  • From day 30 of the month at 23:00 UTC
  • Clouds: Broken sky at 3962 meters
  • Wind: Variable at 3
  • From day 1 of the month at 16:00 UTC
  • Clouds: Broken sky at 2743 meters
  • Wind: 200 degrees at 7